sensor_id;sensor_type;location;lat;lon;timestamp;P1;durP1;ratioP1;P2;durP2;ratioP2
75165;SDS011;63747;48.042;10.088;2023-10-19T00:00:37;23.47;;;21.07;;
75165;SDS011;63747;48.042;10.088;2023-10-19T00:03:44;23.58;;;20.88;;
75165;SDS011;63747;48.042;10.088;2023-10-19T00:06:45;19.60;;;17.70;;
75165;SDS011;63747;48.042;10.088;2023-10-19T00:09:48;19.00;;;17.10;;
75165;SDS011;63747;48.042;10.088;2023-10-19T00:12:52;18.92;;;17.08;;
75165;SDS011;63747;48.042;10.088;2023-10-19T00:16:00;18.58;;;16.77;;
75165;SDS011;63747;48.042;10.088;2023-10-19T00:19:00;18.15;;;16.25;;
75165;SDS011;63747;48.042;10.088;2023-10-19T00:22:03;20.88;;;18.30;;
75165;SDS011;63747;48.042;10.088;2023-10-19T00:25:08;20.55;;;18.52;;
75165;SDS011;63747;48.042;10.088;2023-10-19T00:28:13;21.38;;;19.27;;
75165;SDS011;63747;48.042;10.088;2023-10-19T00:31:15;21.30;;;19.20;;
75165;SDS011;63747;48.042;10.088;2023-10-19T00:34:16;18.90;;;17.07;;
75165;SDS011;63747;48.042;10.088;2023-10-19T00:37:18;20.00;;;18.10;;
75165;SDS011;63747;48.042;10.088;2023-10-19T00:40:22;18.08;;;16.38;;
75165;SDS011;63747;48.042;10.088;2023-10-19T00:43:34;17.83;;;16.13;;
75165;SDS011;63747;48.042;10.088;2023-10-19T00:46:43;17.10;;;15.48;;
75165;SDS011;63747;48.042;10.088;2023-10-19T00:49:49;19.13;;;17.27;;
75165;SDS011;63747;48.042;10.088;2023-10-19T00:52:50;17.80;;;16.10;;
75165;SDS011;63747;48.042;10.088;2023-10-19T00:55:51;17.85;;;16.05;;
75165;SDS011;63747;48.042;10.088;2023-10-19T00:58:53;17.30;;;15.37;;
75165;SDS011;63747;48.042;10.088;2023-10-19T01:01:59;17.98;;;16.27;;
75165;SDS011;63747;48.042;10.088;2023-10-19T01:05:16;17.75;;;16.08;;
75165;SDS011;63747;48.042;10.088;2023-10-19T01:08:21;16.58;;;14.98;;
75165;SDS011;63747;48.042;10.088;2023-10-19T01:11:31;17.05;;;15.35;;
75165;SDS011;63747;48.042;10.088;2023-10-19T01:14:35;17.35;;;15.75;;
75165;SDS011;63747;48.042;10.088;2023-10-19T01:17:37;19.20;;;15.95;;
75165;SDS011;63747;48.042;10.088;2023-10-19T01:20:41;16.83;;;15.23;;
75165;SDS011;63747;48.042;10.088;2023-10-19T01:23:51;16.88;;;15.38;;
75165;SDS011;63747;48.042;10.088;2023-10-19T01:26:52;16.30;;;14.70;;
75165;SDS011;63747;48.042;10.088;2023-10-19T01:29:54;16.92;;;15.05;;
75165;SDS011;63747;48.042;10.088;2023-10-19T01:33:00;17.52;;;15.30;;
75165;SDS011;63747;48.042;10.088;2023-10-19T01:36:01;16.80;;;14.93;;
75165;SDS011;63747;48.042;10.088;2023-10-19T01:39:11;17.85;;;16.08;;
75165;SDS011;63747;48.042;10.088;2023-10-19T01:42:12;18.17;;;16.27;;
75165;SDS011;63747;48.042;10.088;2023-10-19T01:45:12;17.80;;;16.00;;
75165;SDS011;63747;48.042;10.088;2023-10-19T01:48:14;17.83;;;16.02;;
75165;SDS011;63747;48.042;10.088;2023-10-19T01:51:16;18.50;;;16.60;;
75165;SDS011;63747;48.042;10.088;2023-10-19T01:54:16;20.03;;;16.90;;
75165;SDS011;63747;48.042;10.088;2023-10-19T01:57:22;18.77;;;16.83;;
75165;SDS011;63747;48.042;10.088;2023-10-19T02:00:24;18.15;;;16.38;;
75165;SDS011;63747;48.042;10.088;2023-10-19T02:03:26;18.75;;;16.90;;
75165;SDS011;63747;48.042;10.088;2023-10-19T02:06:33;18.80;;;16.83;;
75165;SDS011;63747;48.042;10.088;2023-10-19T02:09:38;19.30;;;17.20;;
75165;SDS011;63747;48.042;10.088;2023-10-19T02:12:39;19.20;;;17.13;;
75165;SDS011;63747;48.042;10.088;2023-10-19T02:15:45;19.92;;;17.75;;
75165;SDS011;63747;48.042;10.088;2023-10-19T02:18:45;19.77;;;17.67;;
75165;SDS011;63747;48.042;10.088;2023-10-19T02:21:50;18.90;;;17.00;;
75165;SDS011;63747;48.042;10.088;2023-10-19T02:24:52;19.25;;;17.33;;
75165;SDS011;63747;48.042;10.088;2023-10-19T02:27:53;18.10;;;16.20;;
75165;SDS011;63747;48.042;10.088;2023-10-19T02:30:53;18.63;;;16.73;;
75165;SDS011;63747;48.042;10.088;2023-10-19T02:33:54;18.23;;;16.50;;
75165;SDS011;63747;48.042;10.088;2023-10-19T02:37:01;18.45;;;16.65;;
75165;SDS011;63747;48.042;10.088;2023-10-19T02:40:02;19.48;;;17.48;;
75165;SDS011;63747;48.042;10.088;2023-10-19T02:43:12;17.90;;;16.08;;
75165;SDS011;63747;48.042;10.088;2023-10-19T02:46:13;18.80;;;16.90;;
75165;SDS011;63747;48.042;10.088;2023-10-19T02:52:18;17.08;;;15.27;;
75165;SDS011;63747;48.042;10.088;2023-10-19T02:55:19;17.37;;;15.73;;
75165;SDS011;63747;48.042;10.088;2023-10-19T02:58:24;17.73;;;15.93;;
75165;SDS011;63747;48.042;10.088;2023-10-19T03:01:28;18.77;;;16.88;;
75165;SDS011;63747;48.042;10.088;2023-10-19T03:04:33;23.58;;;19.55;;
75165;SDS011;63747;48.042;10.088;2023-10-19T03:07:37;19.38;;;17.40;;
75165;SDS011;63747;48.042;10.088;2023-10-19T03:10:39;20.27;;;16.83;;
75165;SDS011;63747;48.042;10.088;2023-10-19T03:13:42;20.67;;;18.42;;
75165;SDS011;63747;48.042;10.088;2023-10-19T03:16:44;22.02;;;18.65;;
75165;SDS011;63747;48.042;10.088;2023-10-19T03:19:45;21.08;;;18.58;;
75165;SDS011;63747;48.042;10.088;2023-10-19T03:22:46;21.37;;;19.07;;
75165;SDS011;63747;48.042;10.088;2023-10-19T03:25:52;19.20;;;16.88;;
75165;SDS011;63747;48.042;10.088;2023-10-19T03:29:17;19.65;;;17.55;;
75165;SDS011;63747;48.042;10.088;2023-10-19T03:32:31;20.10;;;17.95;;
75165;SDS011;63747;48.042;10.088;2023-10-19T03:35:35;20.55;;;17.50;;
75165;SDS011;63747;48.042;10.088;2023-10-19T03:38:37;21.25;;;18.15;;
75165;SDS011;63747;48.042;10.088;2023-10-19T03:41:38;20.83;;;17.87;;
75165;SDS011;63747;48.042;10.088;2023-10-19T03:44:42;20.38;;;18.33;;
75165;SDS011;63747;48.042;10.088;2023-10-19T03:47:43;19.97;;;17.87;;
75165;SDS011;63747;48.042;10.088;2023-10-19T03:50:44;20.17;;;18.10;;
75165;SDS011;63747;48.042;10.088;2023-10-19T03:53:46;19.73;;;17.67;;
75165;SDS011;63747;48.042;10.088;2023-10-19T03:56:54;18.85;;;16.85;;
75165;SDS011;63747;48.042;10.088;2023-10-19T03:59:57;19.25;;;17.35;;
75165;SDS011;63747;48.042;10.088;2023-10-19T04:02:58;21.03;;;17.33;;
75165;SDS011;63747;48.042;10.088;2023-10-19T04:05:59;19.52;;;17.02;;
75165;SDS011;63747;48.042;10.088;2023-10-19T04:09:04;18.80;;;16.25;;
75165;SDS011;63747;48.042;10.088;2023-10-19T04:12:05;19.88;;;17.48;;
75165;SDS011;63747;48.042;10.088;2023-10-19T04:15:07;20.48;;;18.33;;
75165;SDS011;63747;48.042;10.088;2023-10-19T04:18:17;19.58;;;17.42;;
75165;SDS011;63747;48.042;10.088;2023-10-19T04:21:18;20.93;;;18.60;;
75165;SDS011;63747;48.042;10.088;2023-10-19T04:24:18;19.33;;;17.30;;
75165;SDS011;63747;48.042;10.088;2023-10-19T04:27:19;21.13;;;18.63;;
75165;SDS011;63747;48.042;10.088;2023-10-19T04:30:23;20.27;;;18.02;;
75165;SDS011;63747;48.042;10.088;2023-10-19T04:33:24;21.08;;;18.88;;
75165;SDS011;63747;48.042;10.088;2023-10-19T04:36:27;23.45;;;20.88;;
75165;SDS011;63747;48.042;10.088;2023-10-19T04:39:28;29.67;;;25.93;;
75165;SDS011;63747;48.042;10.088;2023-10-19T04:42:30;24.52;;;21.13;;
75165;SDS011;63747;48.042;10.088;2023-10-19T04:45:35;21.90;;;19.40;;
75165;SDS011;63747;48.042;10.088;2023-10-19T04:48:40;22.65;;;18.38;;
75165;SDS011;63747;48.042;10.088;2023-10-19T04:54:43;20.27;;;17.98;;
75165;SDS011;63747;48.042;10.088;2023-10-19T04:57:44;22.47;;;19.10;;
75165;SDS011;63747;48.042;10.088;2023-10-19T05:00:44;20.13;;;17.87;;
75165;SDS011;63747;48.042;10.088;2023-10-19T05:03:45;21.07;;;18.40;;
75165;SDS011;63747;48.042;10.088;2023-10-19T05:06:46;19.93;;;17.30;;
75165;SDS011;63747;48.042;10.088;2023-10-19T05:09:46;24.90;;;19.83;;
75165;SDS011;63747;48.042;10.088;2023-10-19T05:12:47;20.70;;;18.30;;
75165;SDS011;63747;48.042;10.088;2023-10-19T05:15:48;20.77;;;17.50;;
75165;SDS011;63747;48.042;10.088;2023-10-19T05:18:49;21.07;;;17.43;;
75165;SDS011;63747;48.042;10.088;2023-10-19T05:21:50;21.93;;;17.60;;
75165;SDS011;63747;48.042;10.088;2023-10-19T05:24:50;20.27;;;17.70;;
75165;SDS011;63747;48.042;10.088;2023-10-19T05:27:51;19.97;;;16.67;;
75165;SDS011;63747;48.042;10.088;2023-10-19T05:30:52;21.13;;;16.63;;
75165;SDS011;63747;48.042;10.088;2023-10-19T05:33:52;17.67;;;15.80;;
75165;SDS011;63747;48.042;10.088;2023-10-19T05:36:53;18.77;;;16.77;;
75165;SDS011;63747;48.042;10.088;2023-10-19T05:39:54;26.92;;;18.77;;
75165;SDS011;63747;48.042;10.088;2023-10-19T05:42:55;19.60;;;17.50;;
75165;SDS011;63747;48.042;10.088;2023-10-19T05:45:56;19.60;;;16.90;;
75165;SDS011;63747;48.042;10.088;2023-10-19T05:48:57;19.30;;;17.20;;
75165;SDS011;63747;48.042;10.088;2023-10-19T05:51:58;19.85;;;17.00;;
75165;SDS011;63747;48.042;10.088;2023-10-19T05:54:59;21.87;;;17.67;;
75165;SDS011;63747;48.042;10.088;2023-10-19T05:57:59;21.33;;;17.10;;
75165;SDS011;63747;48.042;10.088;2023-10-19T06:01:00;19.07;;;17.07;;
75165;SDS011;63747;48.042;10.088;2023-10-19T06:04:01;18.07;;;16.17;;
75165;SDS011;63747;48.042;10.088;2023-10-19T06:07:02;19.48;;;16.27;;
75165;SDS011;63747;48.042;10.088;2023-10-19T06:10:03;40.47;;;18.97;;
75165;SDS011;63747;48.042;10.088;2023-10-19T06:16:09;33.17;;;20.83;;
75165;SDS011;63747;48.042;10.088;2023-10-19T06:19:10;28.70;;;20.73;;
75165;SDS011;63747;48.042;10.088;2023-10-19T06:22:11;25.73;;;20.13;;
75165;SDS011;63747;48.042;10.088;2023-10-19T06:25:12;21.65;;;18.15;;
75165;SDS011;63747;48.042;10.088;2023-10-19T06:28:14;21.27;;;17.77;;
75165;SDS011;63747;48.042;10.088;2023-10-19T06:31:15;20.55;;;17.63;;
75165;SDS011;63747;48.042;10.088;2023-10-19T06:34:17;30.02;;;19.10;;
75165;SDS011;63747;48.042;10.088;2023-10-19T06:37:18;26.90;;;19.05;;
75165;SDS011;63747;48.042;10.088;2023-10-19T06:40:19;28.17;;;17.57;;
75165;SDS011;63747;48.042;10.088;2023-10-19T06:43:20;26.48;;;16.60;;
75165;SDS011;63747;48.042;10.088;2023-10-19T06:46:23;19.23;;;16.00;;
75165;SDS011;63747;48.042;10.088;2023-10-19T06:49:24;19.47;;;15.63;;
75165;SDS011;63747;48.042;10.088;2023-10-19T06:52:25;18.50;;;15.53;;
75165;SDS011;63747;48.042;10.088;2023-10-19T06:55:25;19.87;;;16.30;;
75165;SDS011;63747;48.042;10.088;2023-10-19T06:58:28;18.30;;;16.23;;
75165;SDS011;63747;48.042;10.088;2023-10-19T07:01:29;18.33;;;14.15;;
75165;SDS011;63747;48.042;10.088;2023-10-19T07:04:32;16.67;;;14.48;;
75165;SDS011;63747;48.042;10.088;2023-10-19T07:07:32;18.07;;;15.37;;
75165;SDS011;63747;48.042;10.088;2023-10-19T07:10:33;18.35;;;15.88;;
75165;SDS011;63747;48.042;10.088;2023-10-19T07:13:34;17.73;;;15.60;;
75165;SDS011;63747;48.042;10.088;2023-10-19T07:16:35;19.83;;;15.93;;
75165;SDS011;63747;48.042;10.088;2023-10-19T07:19:36;22.23;;;17.55;;
75165;SDS011;63747;48.042;10.088;2023-10-19T07:25:39;35.55;;;26.38;;
75165;SDS011;63747;48.042;10.088;2023-10-19T07:28:47;31.30;;;25.15;;
75165;SDS011;63747;48.042;10.088;2023-10-19T07:31:48;25.23;;;21.13;;
75165;SDS011;63747;48.042;10.088;2023-10-19T07:34:52;24.77;;;22.02;;
75165;SDS011;63747;48.042;10.088;2023-10-19T07:37:52;28.00;;;21.77;;
75165;SDS011;63747;48.042;10.088;2023-10-19T07:40:54;20.83;;;18.33;;
75165;SDS011;63747;48.042;10.088;2023-10-19T07:43:54;23.40;;;18.53;;
75165;SDS011;63747;48.042;10.088;2023-10-19T07:46:55;19.67;;;17.50;;
75165;SDS011;63747;48.042;10.088;2023-10-19T07:49:56;19.40;;;15.90;;
75165;SDS011;63747;48.042;10.088;2023-10-19T07:52:56;19.50;;;16.00;;
75165;SDS011;63747;48.042;10.088;2023-10-19T07:55:57;21.33;;;19.03;;
75165;SDS011;63747;48.042;10.088;2023-10-19T07:58:58;18.40;;;15.50;;
75165;SDS011;63747;48.042;10.088;2023-10-19T08:01:59;17.07;;;14.73;;
75165;SDS011;63747;48.042;10.088;2023-10-19T08:05:04;22.33;;;18.25;;
75165;SDS011;63747;48.042;10.088;2023-10-19T08:08:07;19.35;;;15.80;;
75165;SDS011;63747;48.042;10.088;2023-10-19T08:11:08;18.92;;;15.73;;
75165;SDS011;63747;48.042;10.088;2023-10-19T08:14:09;15.60;;;13.82;;
75165;SDS011;63747;48.042;10.088;2023-10-19T08:17:10;18.43;;;15.97;;
75165;SDS011;63747;48.042;10.088;2023-10-19T08:20:11;19.60;;;14.90;;
75165;SDS011;63747;48.042;10.088;2023-10-19T08:23:30;20.33;;;15.20;;
75165;SDS011;63747;48.042;10.088;2023-10-19T08:26:31;20.30;;;15.90;;
75165;SDS011;63747;48.042;10.088;2023-10-19T08:29:32;17.07;;;15.17;;
75165;SDS011;63747;48.042;10.088;2023-10-19T08:32:33;16.92;;;13.93;;
75165;SDS011;63747;48.042;10.088;2023-10-19T08:35:34;14.90;;;13.30;;
75165;SDS011;63747;48.042;10.088;2023-10-19T08:41:36;16.07;;;13.53;;
75165;SDS011;63747;48.042;10.088;2023-10-19T08:47:58;16.87;;;13.10;;
75165;SDS011;63747;48.042;10.088;2023-10-19T08:51:02;17.30;;;12.77;;
75165;SDS011;63747;48.042;10.088;2023-10-19T08:54:10;15.65;;;13.82;;
75165;SDS011;63747;48.042;10.088;2023-10-19T08:57:12;15.95;;;14.32;;
75165;SDS011;63747;48.042;10.088;2023-10-19T09:00:14;16.50;;;13.57;;
75165;SDS011;63747;48.042;10.088;2023-10-19T09:03:18;16.33;;;12.10;;
75165;SDS011;63747;48.042;10.088;2023-10-19T09:06:20;15.25;;;12.20;;
75165;SDS011;63747;48.042;10.088;2023-10-19T09:12:25;14.93;;;11.75;;
75165;SDS011;63747;48.042;10.088;2023-10-19T09:15:26;14.13;;;11.82;;
75165;SDS011;63747;48.042;10.088;2023-10-19T09:18:29;13.18;;;11.82;;
75165;SDS011;63747;48.042;10.088;2023-10-19T09:24:33;14.15;;;11.63;;
75165;SDS011;63747;48.042;10.088;2023-10-19T09:27:35;15.73;;;12.30;;
75165;SDS011;63747;48.042;10.088;2023-10-19T09:30:36;13.15;;;11.52;;
75165;SDS011;63747;48.042;10.088;2023-10-19T09:33:40;12.88;;;11.10;;
75165;SDS011;63747;48.042;10.088;2023-10-19T09:36:41;14.10;;;11.63;;
75165;SDS011;63747;48.042;10.088;2023-10-19T09:39:43;14.05;;;10.63;;
75165;SDS011;63747;48.042;10.088;2023-10-19T09:42:45;12.82;;;10.98;;
75165;SDS011;63747;48.042;10.088;2023-10-19T09:45:52;14.63;;;11.27;;
75165;SDS011;63747;48.042;10.088;2023-10-19T09:48:58;17.55;;;11.73;;
75165;SDS011;63747;48.042;10.088;2023-10-19T09:52:00;13.18;;;11.52;;
75165;SDS011;63747;48.042;10.088;2023-10-19T09:55:03;12.48;;;11.18;;
75165;SDS011;63747;48.042;10.088;2023-10-19T09:58:15;15.15;;;10.18;;
75165;SDS011;63747;48.042;10.088;2023-10-19T10:01:17;13.27;;;11.18;;
75165;SDS011;63747;48.042;10.088;2023-10-19T10:04:30;15.57;;;11.13;;
75165;SDS011;63747;48.042;10.088;2023-10-19T10:07:32;10.25;;;9.20;;
75165;SDS011;63747;48.042;10.088;2023-10-19T10:10:33;12.05;;;9.70;;
75165;SDS011;63747;48.042;10.088;2023-10-19T10:13:37;11.95;;;9.43;;
75165;SDS011;63747;48.042;10.088;2023-10-19T10:16:38;11.85;;;9.63;;
75165;SDS011;63747;48.042;10.088;2023-10-19T10:19:39;11.48;;;8.52;;
75165;SDS011;63747;48.042;10.088;2023-10-19T10:22:43;8.70;;;7.03;;
75165;SDS011;63747;48.042;10.088;2023-10-19T10:25:47;9.57;;;7.47;;
75165;SDS011;63747;48.042;10.088;2023-10-19T10:29:26;9.75;;;7.25;;
75165;SDS011;63747;48.042;10.088;2023-10-19T10:36:06;8.68;;;6.32;;
75165;SDS011;63747;48.042;10.088;2023-10-19T10:39:07;6.47;;;5.88;;
75165;SDS011;63747;48.042;10.088;2023-10-19T10:42:16;6.88;;;5.85;;
75165;SDS011;63747;48.042;10.088;2023-10-19T10:45:20;13.82;;;9.48;;
75165;SDS011;63747;48.042;10.088;2023-10-19T10:48:23;12.45;;;8.55;;
75165;SDS011;63747;48.042;10.088;2023-10-19T10:51:26;7.95;;;6.88;;
75165;SDS011;63747;48.042;10.088;2023-10-19T10:54:28;7.93;;;5.93;;
75165;SDS011;63747;48.042;10.088;2023-10-19T10:57:33;7.60;;;5.55;;
75165;SDS011;63747;48.042;10.088;2023-10-19T11:00:34;6.43;;;4.70;;
75165;SDS011;63747;48.042;10.088;2023-10-19T11:03:42;6.28;;;4.90;;
75165;SDS011;63747;48.042;10.088;2023-10-19T11:09:56;7.32;;;5.82;;
75165;SDS011;63747;48.042;10.088;2023-10-19T11:13:00;9.38;;;5.75;;
75165;SDS011;63747;48.042;10.088;2023-10-19T11:16:05;7.53;;;5.53;;
75165;SDS011;63747;48.042;10.088;2023-10-19T11:19:07;7.53;;;5.32;;
75165;SDS011;63747;48.042;10.088;2023-10-19T11:22:09;7.07;;;4.93;;
75165;SDS011;63747;48.042;10.088;2023-10-19T11:25:21;6.88;;;4.63;;
75165;SDS011;63747;48.042;10.088;2023-10-19T11:28:24;5.28;;;4.78;;
75165;SDS011;63747;48.042;10.088;2023-10-19T11:31:28;5.28;;;4.78;;
75165;SDS011;63747;48.042;10.088;2023-10-19T11:34:37;6.30;;;4.22;;
75165;SDS011;63747;48.042;10.088;2023-10-19T11:37:48;4.57;;;3.92;;
75165;SDS011;63747;48.042;10.088;2023-10-19T11:40:53;5.35;;;4.13;;
75165;SDS011;63747;48.042;10.088;2023-10-19T11:43:53;8.68;;;3.80;;
75165;SDS011;63747;48.042;10.088;2023-10-19T11:46:54;5.82;;;3.90;;
75165;SDS011;63747;48.042;10.088;2023-10-19T11:49:55;5.15;;;3.47;;
75165;SDS011;63747;48.042;10.088;2023-10-19T11:52:56;4.63;;;4.13;;
75165;SDS011;63747;48.042;10.088;2023-10-19T11:58:57;7.77;;;4.00;;
75165;SDS011;63747;48.042;10.088;2023-10-19T12:01:58;6.45;;;4.45;;
75165;SDS011;63747;48.042;10.088;2023-10-19T12:05:01;4.57;;;4.03;;
75165;SDS011;63747;48.042;10.088;2023-10-19T12:08:02;6.05;;;4.45;;
75165;SDS011;63747;48.042;10.088;2023-10-19T12:14:10;6.07;;;4.18;;
75165;SDS011;63747;48.042;10.088;2023-10-19T12:17:15;5.18;;;4.68;;
75165;SDS011;63747;48.042;10.088;2023-10-19T12:20:17;5.28;;;4.43;;
75165;SDS011;63747;48.042;10.088;2023-10-19T12:23:22;3.97;;;3.42;;
75165;SDS011;63747;48.042;10.088;2023-10-19T12:26:23;3.40;;;3.10;;
75165;SDS011;63747;48.042;10.088;2023-10-19T12:29:24;5.00;;;3.33;;
75165;SDS011;63747;48.042;10.088;2023-10-19T12:35:26;5.70;;;3.63;;
75165;SDS011;63747;48.042;10.088;2023-10-19T12:38:45;4.60;;;2.95;;
75165;SDS011;63747;48.042;10.088;2023-10-19T12:44:47;5.25;;;3.90;;
75165;SDS011;63747;48.042;10.088;2023-10-19T12:47:48;6.53;;;3.83;;
75165;SDS011;63747;48.042;10.088;2023-10-19T12:50:48;5.10;;;3.92;;
75165;SDS011;63747;48.042;10.088;2023-10-19T12:53:53;4.35;;;3.63;;
75165;SDS011;63747;48.042;10.088;2023-10-19T12:56:55;4.70;;;4.03;;
75165;SDS011;63747;48.042;10.088;2023-10-19T13:02:56;4.87;;;4.30;;
75165;SDS011;63747;48.042;10.088;2023-10-19T13:05:59;5.63;;;4.72;;
75165;SDS011;63747;48.042;10.088;2023-10-19T13:09:05;5.18;;;4.68;;
75165;SDS011;63747;48.042;10.088;2023-10-19T13:12:09;6.93;;;4.75;;
75165;SDS011;63747;48.042;10.088;2023-10-19T13:15:13;5.85;;;4.50;;
75165;SDS011;63747;48.042;10.088;2023-10-19T13:18:14;5.05;;;4.55;;
75165;SDS011;63747;48.042;10.088;2023-10-19T13:21:19;6.07;;;4.78;;
75165;SDS011;63747;48.042;10.088;2023-10-19T13:24:27;6.80;;;4.25;;
75165;SDS011;63747;48.042;10.088;2023-10-19T13:27:31;8.07;;;4.75;;
75165;SDS011;63747;48.042;10.088;2023-10-19T13:33:35;5.93;;;4.43;;
75165;SDS011;63747;48.042;10.088;2023-10-19T13:36:36;5.20;;;4.22;;
75165;SDS011;63747;48.042;10.088;2023-10-19T13:39:38;5.13;;;4.63;;
75165;SDS011;63747;48.042;10.088;2023-10-19T13:45:42;6.07;;;4.43;;
75165;SDS011;63747;48.042;10.088;2023-10-19T13:51:44;5.93;;;4.43;;
75165;SDS011;63747;48.042;10.088;2023-10-19T13:54:44;5.10;;;4.53;;
75165;SDS011;63747;48.042;10.088;2023-10-19T13:57:46;6.47;;;4.72;;
75165;SDS011;63747;48.042;10.088;2023-10-19T14:00:48;7.28;;;4.20;;
75165;SDS011;63747;48.042;10.088;2023-10-19T14:03:49;5.22;;;4.55;;
75165;SDS011;63747;48.042;10.088;2023-10-19T14:06:54;5.57;;;3.90;;
75165;SDS011;63747;48.042;10.088;2023-10-19T14:12:56;6.27;;;4.50;;
75165;SDS011;63747;48.042;10.088;2023-10-19T14:15:56;5.22;;;4.25;;
75165;SDS011;63747;48.042;10.088;2023-10-19T14:18:57;6.13;;;4.80;;
75165;SDS011;63747;48.042;10.088;2023-10-19T14:24:59;6.87;;;4.57;;
75165;SDS011;63747;48.042;10.088;2023-10-19T14:27:59;5.88;;;4.20;;
75165;SDS011;63747;48.042;10.088;2023-10-19T14:31:00;7.78;;;4.03;;
75165;SDS011;63747;48.042;10.088;2023-10-19T14:34:01;4.45;;;3.90;;
75165;SDS011;63747;48.042;10.088;2023-10-19T14:37:02;4.47;;;3.60;;
75165;SDS011;63747;48.042;10.088;2023-10-19T14:43:03;4.78;;;3.65;;
75165;SDS011;63747;48.042;10.088;2023-10-19T14:49:06;4.43;;;3.15;;
75165;SDS011;63747;48.042;10.088;2023-10-19T14:55:07;7.17;;;3.70;;
75165;SDS011;63747;48.042;10.088;2023-10-19T14:58:10;7.25;;;3.90;;
75165;SDS011;63747;48.042;10.088;2023-10-19T15:01:10;7.75;;;4.28;;
75165;SDS011;63747;48.042;10.088;2023-10-19T15:04:16;6.75;;;4.35;;
75165;SDS011;63747;48.042;10.088;2023-10-19T15:07:17;6.35;;;4.00;;
75165;SDS011;63747;48.042;10.088;2023-10-19T15:10:24;5.10;;;4.47;;
75165;SDS011;63747;48.042;10.088;2023-10-19T15:13:27;7.38;;;4.72;;
75165;SDS011;63747;48.042;10.088;2023-10-19T15:16:28;5.10;;;4.50;;
75165;SDS011;63747;48.042;10.088;2023-10-19T15:22:30;5.63;;;4.60;;
75165;SDS011;63747;48.042;10.088;2023-10-19T15:25:31;4.97;;;4.15;;
75165;SDS011;63747;48.042;10.088;2023-10-19T15:28:32;5.82;;;4.20;;
75165;SDS011;63747;48.042;10.088;2023-10-19T15:34:33;5.00;;;4.20;;
75165;SDS011;63747;48.042;10.088;2023-10-19T15:37:35;5.10;;;4.15;;
75165;SDS011;63747;48.042;10.088;2023-10-19T15:40:36;8.52;;;4.60;;
75165;SDS011;63747;48.042;10.088;2023-10-19T15:43:40;5.13;;;4.25;;
75165;SDS011;63747;48.042;10.088;2023-10-19T15:46:40;6.10;;;4.25;;
75165;SDS011;63747;48.042;10.088;2023-10-19T15:49:48;5.80;;;3.92;;
75165;SDS011;63747;48.042;10.088;2023-10-19T15:52:54;5.38;;;4.47;;
75165;SDS011;63747;48.042;10.088;2023-10-19T15:55:55;5.15;;;4.47;;
75165;SDS011;63747;48.042;10.088;2023-10-19T15:58:56;9.40;;;5.28;;
75165;SDS011;63747;48.042;10.088;2023-10-19T16:01:56;6.03;;;4.82;;
75165;SDS011;63747;48.042;10.088;2023-10-19T16:04:57;6.15;;;4.60;;
75165;SDS011;63747;48.042;10.088;2023-10-19T16:07:58;6.82;;;3.88;;
75165;SDS011;63747;48.042;10.088;2023-10-19T16:10:59;9.30;;;4.20;;
75165;SDS011;63747;48.042;10.088;2023-10-19T16:14:03;5.93;;;3.88;;
75165;SDS011;63747;48.042;10.088;2023-10-19T16:17:04;7.32;;;4.07;;
75165;SDS011;63747;48.042;10.088;2023-10-19T16:20:05;4.28;;;3.70;;
75165;SDS011;63747;48.042;10.088;2023-10-19T16:23:15;4.97;;;3.83;;
75165;SDS011;63747;48.042;10.088;2023-10-19T16:26:15;6.35;;;4.38;;
75165;SDS011;63747;48.042;10.088;2023-10-19T16:29:16;5.75;;;3.88;;
75165;SDS011;63747;48.042;10.088;2023-10-19T16:32:17;6.95;;;3.65;;
75165;SDS011;63747;48.042;10.088;2023-10-19T16:35:19;5.72;;;3.92;;
75165;SDS011;63747;48.042;10.088;2023-10-19T16:38:20;6.30;;;3.83;;
75165;SDS011;63747;48.042;10.088;2023-10-19T16:41:20;6.82;;;4.25;;
75165;SDS011;63747;48.042;10.088;2023-10-19T16:44:22;4.88;;;4.38;;
75165;SDS011;63747;48.042;10.088;2023-10-19T16:47:23;4.80;;;4.13;;
75165;SDS011;63747;48.042;10.088;2023-10-19T16:50:24;7.18;;;5.35;;
75165;SDS011;63747;48.042;10.088;2023-10-19T16:53:24;8.80;;;5.28;;
75165;SDS011;63747;48.042;10.088;2023-10-19T16:56:25;6.85;;;5.82;;
75165;SDS011;63747;48.042;10.088;2023-10-19T16:59:26;7.10;;;5.47;;
75165;SDS011;63747;48.042;10.088;2023-10-19T17:02:27;6.90;;;5.88;;
75165;SDS011;63747;48.042;10.088;2023-10-19T17:05:27;7.28;;;5.78;;
75165;SDS011;63747;48.042;10.088;2023-10-19T17:08:28;8.45;;;6.45;;
75165;SDS011;63747;48.042;10.088;2023-10-19T17:11:30;8.13;;;5.90;;
75165;SDS011;63747;48.042;10.088;2023-10-19T17:14:31;7.32;;;5.75;;
75165;SDS011;63747;48.042;10.088;2023-10-19T17:17:32;6.55;;;4.90;;
75165;SDS011;63747;48.042;10.088;2023-10-19T17:20:34;7.28;;;5.25;;
75165;SDS011;63747;48.042;10.088;2023-10-19T17:23:43;5.25;;;4.72;;
75165;SDS011;63747;48.042;10.088;2023-10-19T17:26:43;7.25;;;4.90;;
75165;SDS011;63747;48.042;10.088;2023-10-19T17:29:44;5.95;;;5.15;;
75165;SDS011;63747;48.042;10.088;2023-10-19T17:32:45;6.53;;;4.68;;
75165;SDS011;63747;48.042;10.088;2023-10-19T17:35:46;5.80;;;5.07;;
75165;SDS011;63747;48.042;10.088;2023-10-19T17:38:47;7.43;;;5.15;;
75165;SDS011;63747;48.042;10.088;2023-10-19T17:41:48;6.25;;;5.00;;
75165;SDS011;63747;48.042;10.088;2023-10-19T17:47:50;6.70;;;4.53;;
75165;SDS011;63747;48.042;10.088;2023-10-19T17:50:51;8.10;;;4.80;;
75165;SDS011;63747;48.042;10.088;2023-10-19T17:53:52;6.97;;;4.50;;
75165;SDS011;63747;48.042;10.088;2023-10-19T17:56:53;9.43;;;4.63;;
75165;SDS011;63747;48.042;10.088;2023-10-19T17:59:54;5.97;;;4.57;;
75165;SDS011;63747;48.042;10.088;2023-10-19T18:02:54;7.00;;;4.90;;
75165;SDS011;63747;48.042;10.088;2023-10-19T18:05:55;5.70;;;4.70;;
75165;SDS011;63747;48.042;10.088;2023-10-19T18:08:56;6.70;;;4.88;;
75165;SDS011;63747;48.042;10.088;2023-10-19T18:11:57;6.15;;;4.97;;
75165;SDS011;63747;48.042;10.088;2023-10-19T18:14:59;10.05;;;5.30;;
75165;SDS011;63747;48.042;10.088;2023-10-19T18:18:01;6.72;;;5.07;;
75165;SDS011;63747;48.042;10.088;2023-10-19T18:21:11;8.07;;;5.45;;
75165;SDS011;63747;48.042;10.088;2023-10-19T18:24:13;7.40;;;5.43;;
75165;SDS011;63747;48.042;10.088;2023-10-19T18:27:14;5.70;;;5.00;;
75165;SDS011;63747;48.042;10.088;2023-10-19T18:30:15;9.00;;;5.78;;
75165;SDS011;63747;48.042;10.088;2023-10-19T18:33:16;7.88;;;5.13;;
75165;SDS011;63747;48.042;10.088;2023-10-19T18:36:16;6.35;;;4.20;;
75165;SDS011;63747;48.042;10.088;2023-10-19T18:39:17;5.30;;;4.32;;
75165;SDS011;63747;48.042;10.088;2023-10-19T18:42:18;5.38;;;4.55;;
75165;SDS011;63747;48.042;10.088;2023-10-19T18:45:19;5.63;;;4.18;;
75165;SDS011;63747;48.042;10.088;2023-10-19T18:48:19;5.78;;;4.32;;
75165;SDS011;63747;48.042;10.088;2023-10-19T18:51:20;5.70;;;3.97;;
75165;SDS011;63747;48.042;10.088;2023-10-19T18:54:21;4.95;;;4.30;;
75165;SDS011;63747;48.042;10.088;2023-10-19T18:57:21;6.32;;;3.90;;
75165;SDS011;63747;48.042;10.088;2023-10-19T19:00:23;7.25;;;3.97;;
75165;SDS011;63747;48.042;10.088;2023-10-19T19:03:27;6.55;;;4.05;;
75165;SDS011;63747;48.042;10.088;2023-10-19T19:06:28;6.47;;;4.07;;